sensor_id;sensor_type;location;lat;lon;timestamp;pressure;altitude;pressure_sealevel;temperature;humidity
55916;BME280;41826;53.246;-6.670;2022-11-20T00:00:53;99541.56;;;5.97;100.00
55916;BME280;41826;53.246;-6.670;2022-11-20T00:03:18;99540.75;;;5.87;100.00
55916;BME280;41826;53.246;-6.670;2022-11-20T00:05:43;99548.56;;;5.87;100.00
55916;BME280;41826;53.246;-6.670;2022-11-20T00:08:09;99552.00;;;5.88;100.00
55916;BME280;41826;53.246;-6.670;2022-11-20T00:10:40;99545.72;;;5.80;100.00
55916;BME280;41826;53.246;-6.670;2022-11-20T00:13:07;99545.56;;;5.82;100.00
55916;BME280;41826;53.246;-6.670;2022-11-20T00:15:33;99550.25;;;5.78;100.00
55916;BME280;41826;53.246;-6.670;2022-11-20T00:17:59;99554.75;;;5.76;100.00
55916;BME280;41826;53.246;-6.670;2022-11-20T00:20:24;99544.53;;;5.65;100.00
55916;BME280;41826;53.246;-6.670;2022-11-20T00:22:50;99549.72;;;5.65;100.00
55916;BME280;41826;53.246;-6.670;2022-11-20T00:25:16;99550.38;;;5.67;100.00
55916;BME280;41826;53.246;-6.670;2022-11-20T00:27:41;99551.63;;;5.73;100.00
55916;BME280;41826;53.246;-6.670;2022-11-20T00:30:07;99553.44;;;5.62;100.00
55916;BME280;41826;53.246;-6.670;2022-11-20T00:32:33;99551.66;;;5.63;100.00
55916;BME280;41826;53.246;-6.670;2022-11-20T00:34:58;99552.06;;;5.58;100.00
55916;BME280;41826;53.246;-6.670;2022-11-20T00:37:23;99558.09;;;5.59;100.00
55916;BME280;41826;53.246;-6.670;2022-11-20T00:39:49;99554.53;;;5.50;100.00
55916;BME280;41826;53.246;-6.670;2022-11-20T00:42:17;99547.44;;;5.52;100.00
55916;BME280;41826;53.246;-6.670;2022-11-20T00:44:43;99555.63;;;5.57;100.00
55916;BME280;41826;53.246;-6.670;2022-11-20T00:47:08;99559.47;;;5.53;100.00
55916;BME280;41826;53.246;-6.670;2022-11-20T00:49:34;99564.66;;;5.53;100.00
55916;BME280;41826;53.246;-6.670;2022-11-20T00:51:59;99553.03;;;5.57;100.00
55916;BME280;41826;53.246;-6.670;2022-11-20T00:54:24;99552.34;;;5.46;100.00
55916;BME280;41826;53.246;-6.670;2022-11-20T00:56:52;99554.13;;;5.45;100.00
55916;BME280;41826;53.246;-6.670;2022-11-20T00:59:18;99556.34;;;5.40;100.00
55916;BME280;41826;53.246;-6.670;2022-11-20T01:01:43;99558.66;;;5.43;100.00
55916;BME280;41826;53.246;-6.670;2022-11-20T01:04:09;99557.56;;;5.46;100.00
55916;BME280;41826;53.246;-6.670;2022-11-20T01:06:36;99552.34;;;5.26;100.00
55916;BME280;41826;53.246;-6.670;2022-11-20T01:09:09;99556.06;;;5.33;100.00
55916;BME280;41826;53.246;-6.670;2022-11-20T01:11:38;99552.50;;;5.34;100.00
55916;BME280;41826;53.246;-6.670;2022-11-20T01:14:05;99545.25;;;5.28;100.00
55916;BME280;41826;53.246;-6.670;2022-11-20T01:16:36;99541.81;;;5.18;100.00
55916;BME280;41826;53.246;-6.670;2022-11-20T01:19:04;99552.34;;;5.36;100.00
55916;BME280;41826;53.246;-6.670;2022-11-20T01:21:35;99543.59;;;5.37;100.00
55916;BME280;41826;53.246;-6.670;2022-11-20T01:24:01;99556.06;;;5.33;100.00
55916;BME280;41826;53.246;-6.670;2022-11-20T01:26:29;99555.66;;;5.28;100.00
55916;BME280;41826;53.246;-6.670;2022-11-20T01:28:57;99552.34;;;5.26;100.00
55916;BME280;41826;53.246;-6.670;2022-11-20T01:31:26;99544.84;;;5.23;100.00
55916;BME280;41826;53.246;-6.670;2022-11-20T01:33:53;99557.84;;;5.23;100.00
55916;BME280;41826;53.246;-6.670;2022-11-20T01:36:20;99546.06;;;5.19;100.00
55916;BME280;41826;53.246;-6.670;2022-11-20T01:38:46;99556.59;;;5.08;100.00
55916;BME280;41826;53.246;-6.670;2022-11-20T01:41:13;99557.69;;;5.05;100.00
55916;BME280;41826;53.246;-6.670;2022-11-20T01:44:00;99571.13;;;5.10;100.00
55916;BME280;41826;53.246;-6.670;2022-11-20T01:46:26;99567.69;;;5.00;100.00
55916;BME280;41826;53.246;-6.670;2022-11-20T01:49:08;99564.41;;;5.08;100.00
55916;BME280;41826;53.246;-6.670;2022-11-20T01:51:39;99571.41;;;5.07;100.00
55916;BME280;41826;53.246;-6.670;2022-11-20T01:54:12;99554.56;;;5.02;100.00
55916;BME280;41826;53.246;-6.670;2022-11-20T01:56:41;99562.63;;;4.98;100.00
55916;BME280;41826;53.246;-6.670;2022-11-20T01:59:08;99568.53;;;5.10;100.00
55916;BME280;41826;53.246;-6.670;2022-11-20T02:01:35;99568.25;;;5.13;100.00
55916;BME280;41826;53.246;-6.670;2022-11-20T02:04:01;99575.91;;;5.05;100.00
55916;BME280;41826;53.246;-6.670;2022-11-20T02:06:35;99574.69;;;5.09;100.00
55916;BME280;41826;53.246;-6.670;2022-11-20T02:09:02;99570.84;;;5.13;100.00
55916;BME280;41826;53.246;-6.670;2022-11-20T02:11:30;99575.34;;;4.92;100.00
55916;BME280;41826;53.246;-6.670;2022-11-20T02:13:55;99581.13;;;5.15;100.00
55916;BME280;41826;53.246;-6.670;2022-11-20T02:16:24;99577.03;;;5.22;100.00
55916;BME280;41826;53.246;-6.670;2022-11-20T02:18:50;99576.75;;;5.35;100.00
55916;BME280;41826;53.246;-6.670;2022-11-20T02:21:27;99567.84;;;5.28;100.00
55916;BME280;41826;53.246;-6.670;2022-11-20T02:26:26;99566.22;;;5.27;100.00
55916;BME280;41826;53.246;-6.670;2022-11-20T02:28:53;99551.25;;;5.29;100.00
55916;BME280;41826;53.246;-6.670;2022-11-20T02:31:22;99550.84;;;5.24;100.00
55916;BME280;41826;53.246;-6.670;2022-11-20T02:33:47;99541.13;;;5.16;100.00
55916;BME280;41826;53.246;-6.670;2022-11-20T02:36:15;99541.28;;;5.14;100.00
55916;BME280;41826;53.246;-6.670;2022-11-20T02:38:41;99540.19;;;5.07;100.00
55916;BME280;41826;53.246;-6.670;2022-11-20T02:41:08;99542.22;;;5.13;100.00
55916;BME280;41826;53.246;-6.670;2022-11-20T02:43:33;99537.03;;;5.23;100.00
55916;BME280;41826;53.246;-6.670;2022-11-20T02:45:59;99535.81;;;5.17;100.00
55916;BME280;41826;53.246;-6.670;2022-11-20T02:48:24;99548.81;;;5.17;100.00
55916;BME280;41826;53.246;-6.670;2022-11-20T02:50:49;99537.44;;;5.18;100.00
55916;BME280;41826;53.246;-6.670;2022-11-20T02:53:15;99537.19;;;5.12;100.00
55916;BME280;41826;53.246;-6.670;2022-11-20T02:55:40;99554.28;;;5.14;100.00
55916;BME280;41826;53.246;-6.670;2022-11-20T02:58:06;99548.94;;;5.16;100.00
55916;BME280;41826;53.246;-6.670;2022-11-20T03:00:31;99553.31;;;5.15;100.00
55916;BME280;41826;53.246;-6.670;2022-11-20T03:02:57;99553.03;;;5.09;100.00
55916;BME280;41826;53.246;-6.670;2022-11-20T03:05:22;99535.41;;;5.12;100.00
55916;BME280;41826;53.246;-6.670;2022-11-20T03:07:48;99553.88;;;5.09;100.00
55916;BME280;41826;53.246;-6.670;2022-11-20T03:10:13;99551.13;;;5.11;100.00
55916;BME280;41826;53.246;-6.670;2022-11-20T03:12:39;99543.59;;;5.08;100.00
55916;BME280;41826;53.246;-6.670;2022-11-20T03:15:04;99538.53;;;5.06;100.00
55916;BME280;41826;53.246;-6.670;2022-11-20T03:17:30;99526.91;;;5.10;100.00
55916;BME280;41826;53.246;-6.670;2022-11-20T03:19:56;99524.31;;;5.10;100.00
55916;BME280;41826;53.246;-6.670;2022-11-20T03:22:21;99520.47;;;5.05;100.00
55916;BME280;41826;53.246;-6.670;2022-11-20T03:24:47;99521.56;;;5.02;100.00
55916;BME280;41826;53.246;-6.670;2022-11-20T03:27:12;99513.50;;;5.05;100.00
55916;BME280;41826;53.246;-6.670;2022-11-20T03:29:37;99517.19;;;5.12;100.00
55916;BME280;41826;53.246;-6.670;2022-11-20T03:32:03;99513.06;;;5.10;100.00
55916;BME280;41826;53.246;-6.670;2022-11-20T03:34:28;99510.19;;;5.03;100.00
55916;BME280;41826;53.246;-6.670;2022-11-20T03:36:54;99517.06;;;5.04;100.00
55916;BME280;41826;53.246;-6.670;2022-11-20T03:39:21;99511.28;;;5.10;100.00
55916;BME280;41826;53.246;-6.670;2022-11-20T03:41:47;99511.16;;;5.02;100.00
55916;BME280;41826;53.246;-6.670;2022-11-20T03:44:12;99523.88;;;5.05;100.00
55916;BME280;41826;53.246;-6.670;2022-11-20T03:46:38;99521.84;;;4.99;100.00
55916;BME280;41826;53.246;-6.670;2022-11-20T03:49:04;99506.91;;;5.01;100.00
55916;BME280;41826;53.246;-6.670;2022-11-20T03:51:31;99508.00;;;5.08;100.00
55916;BME280;41826;53.246;-6.670;2022-11-20T03:54:02;99511.56;;;4.97;100.00
55916;BME280;41826;53.246;-6.670;2022-11-20T03:56:31;99511.03;;;4.94;100.00
55916;BME280;41826;53.246;-6.670;2022-11-20T03:58:57;99514.16;;;4.97;100.00
55916;BME280;41826;53.246;-6.670;2022-11-20T04:01:25;99508.28;;;4.95;100.00
55916;BME280;41826;53.246;-6.670;2022-11-20T04:03:53;99501.97;;;4.88;100.00
55916;BME280;41826;53.246;-6.670;2022-11-20T04:06:25;99508.81;;;4.80;100.00
55916;BME280;41826;53.246;-6.670;2022-11-20T04:08:50;99507.84;;;4.81;100.00
55916;BME280;41826;53.246;-6.670;2022-11-20T04:11:24;99502.41;;;4.74;100.00
55916;BME280;41826;53.246;-6.670;2022-11-20T04:13:55;99498.94;;;4.73;100.00
55916;BME280;41826;53.246;-6.670;2022-11-20T04:16:22;99506.50;;;4.76;100.00
55916;BME280;41826;53.246;-6.670;2022-11-20T04:18:54;99509.09;;;4.76;100.00
55916;BME280;41826;53.246;-6.670;2022-11-20T04:21:20;99511.81;;;4.75;100.00
55916;BME280;41826;53.246;-6.670;2022-11-20T04:23:46;99507.72;;;4.72;100.00
55916;BME280;41826;53.246;-6.670;2022-11-20T04:26:12;99513.63;;;4.74;100.00
55916;BME280;41826;53.246;-6.670;2022-11-20T04:28:38;99517.03;;;4.75;100.00
55916;BME280;41826;53.246;-6.670;2022-11-20T04:31:12;99528.41;;;4.74;100.00
55916;BME280;41826;53.246;-6.670;2022-11-20T04:33:38;99530.84;;;4.75;100.00
55916;BME280;41826;53.246;-6.670;2022-11-20T04:36:11;99531.53;;;4.77;100.00
55916;BME280;41826;53.246;-6.670;2022-11-20T04:38:37;99526.88;;;4.71;100.00
55916;BME280;41826;53.246;-6.670;2022-11-20T04:41:07;99530.41;;;4.70;100.00
55916;BME280;41826;53.246;-6.670;2022-11-20T04:43:33;99527.69;;;4.72;100.00
55916;BME280;41826;53.246;-6.670;2022-11-20T04:46:00;99536.19;;;4.74;100.00
55916;BME280;41826;53.246;-6.670;2022-11-20T04:48:26;99527.03;;;4.80;100.00
55916;BME280;41826;53.246;-6.670;2022-11-20T04:50:52;99542.47;;;4.71;100.00
55916;BME280;41826;53.246;-6.670;2022-11-20T04:53:18;99550.81;;;4.65;100.00
55916;BME280;41826;53.246;-6.670;2022-11-20T04:55:45;99544.38;;;4.60;100.00
55916;BME280;41826;53.246;-6.670;2022-11-20T04:58:10;99548.75;;;4.59;100.00
55916;BME280;41826;53.246;-6.670;2022-11-20T05:00:36;99549.88;;;4.66;100.00
55916;BME280;41826;53.246;-6.670;2022-11-20T05:03:01;99540.81;;;4.51;100.00
55916;BME280;41826;53.246;-6.670;2022-11-20T05:05:27;99554.47;;;4.53;100.00
55916;BME280;41826;53.246;-6.670;2022-11-20T05:07:52;99545.56;;;4.55;100.00
55916;BME280;41826;53.246;-6.670;2022-11-20T05:10:17;99546.94;;;4.50;100.00
55916;BME280;41826;53.246;-6.670;2022-11-20T05:12:43;99540.25;;;4.57;100.00
55916;BME280;41826;53.246;-6.670;2022-11-20T05:15:09;99546.81;;;4.51;100.00
55916;BME280;41826;53.246;-6.670;2022-11-20T05:17:34;99548.72;;;4.49;100.00
55916;BME280;41826;53.246;-6.670;2022-11-20T05:19:59;99540.50;;;4.44;100.00
55916;BME280;41826;53.246;-6.670;2022-11-20T05:22:25;99546.50;;;4.45;100.00
55916;BME280;41826;53.246;-6.670;2022-11-20T05:24:50;99541.34;;;4.54;100.00
55916;BME280;41826;53.246;-6.670;2022-11-20T05:27:16;99537.78;;;4.46;100.00
55916;BME280;41826;53.246;-6.670;2022-11-20T05:29:41;99530.91;;;4.45;100.00
55916;BME280;41826;53.246;-6.670;2022-11-20T05:32:06;99530.88;;;4.35;100.00
55916;BME280;41826;53.246;-6.670;2022-11-20T05:34:34;99525.41;;;4.28;100.00
55916;BME280;41826;53.246;-6.670;2022-11-20T05:37:00;99520.50;;;4.35;100.00
55916;BME280;41826;53.246;-6.670;2022-11-20T05:39:25;99526.25;;;4.39;100.00
55916;BME280;41826;53.246;-6.670;2022-11-20T05:41:51;99529.91;;;4.26;100.00
55916;BME280;41826;53.246;-6.670;2022-11-20T05:44:36;99534.69;;;4.21;100.00
55916;BME280;41826;53.246;-6.670;2022-11-20T05:47:01;99538.78;;;4.24;100.00
55916;BME280;41826;53.246;-6.670;2022-11-20T05:49:27;99533.88;;;4.21;100.00
55916;BME280;41826;53.246;-6.670;2022-11-20T05:51:52;99549.03;;;4.16;100.00
55916;BME280;41826;53.246;-6.670;2022-11-20T05:54:17;99539.88;;;4.21;100.00
55916;BME280;41826;53.246;-6.670;2022-11-20T05:56:43;99536.91;;;4.26;100.00
55916;BME280;41826;53.246;-6.670;2022-11-20T05:59:08;99531.13;;;4.22;100.00
55916;BME280;41826;53.246;-6.670;2022-11-20T06:01:33;99530.41;;;4.20;100.00
55916;BME280;41826;53.246;-6.670;2022-11-20T06:04:01;99534.53;;;4.13;100.00
55916;BME280;41826;53.246;-6.670;2022-11-20T06:06:26;99517.53;;;4.09;100.00
55916;BME280;41826;53.246;-6.670;2022-11-20T06:08:52;99511.16;;;4.13;100.00
55916;BME280;41826;53.246;-6.670;2022-11-20T06:11:17;99504.03;;;4.15;100.00
55916;BME280;41826;53.246;-6.670;2022-11-20T06:13:44;99510.47;;;4.11;100.00
55916;BME280;41826;53.246;-6.670;2022-11-20T06:16:11;99498.06;;;4.24;100.00
55916;BME280;41826;53.246;-6.670;2022-11-20T06:18:37;99503.91;;;4.17;100.00
55916;BME280;41826;53.246;-6.670;2022-11-20T06:21:06;99496.00;;;4.18;100.00
55916;BME280;41826;53.246;-6.670;2022-11-20T06:23:32;99485.41;;;4.10;100.00
55916;BME280;41826;53.246;-6.670;2022-11-20T06:26:05;99491.03;;;4.15;100.00
55916;BME280;41826;53.246;-6.670;2022-11-20T06:28:31;99486.38;;;4.09;100.00
55916;BME280;41826;53.246;-6.670;2022-11-20T06:30:57;99487.47;;;4.06;100.00
55916;BME280;41826;53.246;-6.670;2022-11-20T06:33:23;99482.16;;;4.08;100.00
55916;BME280;41826;53.246;-6.670;2022-11-20T06:35:49;99482.16;;;4.08;100.00
55916;BME280;41826;53.246;-6.670;2022-11-20T06:38:17;99484.59;;;4.09;100.00
55916;BME280;41826;53.246;-6.670;2022-11-20T06:40:43;99484.34;;;4.12;100.00
55916;BME280;41826;53.246;-6.670;2022-11-20T06:43:09;99480.91;;;4.12;100.00
55916;BME280;41826;53.246;-6.670;2022-11-20T06:45:35;99471.34;;;4.03;100.00
55916;BME280;41826;53.246;-6.670;2022-11-20T06:48:00;99475.72;;;4.12;100.00
55916;BME280;41826;53.246;-6.670;2022-11-20T06:50:26;99473.94;;;4.03;100.00
55916;BME280;41826;53.246;-6.670;2022-11-20T06:52:51;99478.44;;;4.01;100.00
55916;BME280;41826;53.246;-6.670;2022-11-20T06:55:16;99474.38;;;4.08;100.00
55916;BME280;41826;53.246;-6.670;2022-11-20T06:57:42;99469.03;;;4.09;100.00
55916;BME280;41826;53.246;-6.670;2022-11-20T07:00:08;99472.94;;;3.94;100.00
55916;BME280;41826;53.246;-6.670;2022-11-20T07:02:33;99481.16;;;3.99;100.00
55916;BME280;41826;53.246;-6.670;2022-11-20T07:04:58;99475.69;;;3.93;100.00
55916;BME280;41826;53.246;-6.670;2022-11-20T07:07:24;99461.03;;;3.91;100.00
55916;BME280;41826;53.246;-6.670;2022-11-20T07:09:49;99474.97;;;3.90;100.00
55916;BME280;41826;53.246;-6.670;2022-11-20T07:12:15;99464.63;;;4.00;100.00
55916;BME280;41826;53.246;-6.670;2022-11-20T07:14:41;99465.72;;;3.98;100.00
55916;BME280;41826;53.246;-6.670;2022-11-20T07:17:06;99462.16;;;3.99;100.00
55916;BME280;41826;53.246;-6.670;2022-11-20T07:19:31;99463.25;;;3.96;100.00
55916;BME280;41826;53.246;-6.670;2022-11-20T07:21:57;99461.84;;;3.92;100.00
55916;BME280;41826;53.246;-6.670;2022-11-20T07:24:22;99468.13;;;3.89;100.00
55916;BME280;41826;53.246;-6.670;2022-11-20T07:26:48;99478.09;;;3.84;100.00
55916;BME280;41826;53.246;-6.670;2022-11-20T07:29:16;99483.53;;;3.81;100.00
55916;BME280;41826;53.246;-6.670;2022-11-20T07:31:42;99480.00;;;3.82;100.00
55916;BME280;41826;53.246;-6.670;2022-11-20T07:34:08;99490.56;;;3.90;100.00
55916;BME280;41826;53.246;-6.670;2022-11-20T07:36:33;99506.84;;;3.93;100.00
55916;BME280;41826;53.246;-6.670;2022-11-20T07:38:59;99506.84;;;3.93;100.00
55916;BME280;41826;53.246;-6.670;2022-11-20T07:44:10;99491.66;;;3.88;100.00
55916;BME280;41826;53.246;-6.670;2022-11-20T07:46:35;99493.09;;;3.81;100.00
55916;BME280;41826;53.246;-6.670;2022-11-20T07:49:01;99498.72;;;3.86;100.00
55916;BME280;41826;53.246;-6.670;2022-11-20T07:51:26;99493.53;;;3.86;100.00
55916;BME280;41826;53.246;-6.670;2022-11-20T07:53:52;99494.94;;;3.90;100.00
55916;BME280;41826;53.246;-6.670;2022-11-20T07:56:18;99504.25;;;3.93;100.00
55916;BME280;41826;53.246;-6.670;2022-11-20T07:58:43;99493.59;;;3.96;100.00
55916;BME280;41826;53.246;-6.670;2022-11-20T08:01:08;99484.00;;;3.96;100.00
55916;BME280;41826;53.246;-6.670;2022-11-20T08:03:34;99493.06;;;4.02;100.00
55916;BME280;41826;53.246;-6.670;2022-11-20T08:06:02;99492.78;;;4.05;100.00
55916;BME280;41826;53.246;-6.670;2022-11-20T08:08:28;99486.78;;;4.04;100.00
55916;BME280;41826;53.246;-6.670;2022-11-20T08:10:56;99489.09;;;4.07;100.00
55916;BME280;41826;53.246;-6.670;2022-11-20T08:13:42;99494.19;;;4.09;100.00
55916;BME280;41826;53.246;-6.670;2022-11-20T08:16:26;99501.00;;;4.10;100.00
55916;BME280;41826;53.246;-6.670;2022-11-20T08:18:51;99503.91;;;4.17;100.00
55916;BME280;41826;53.246;-6.670;2022-11-20T08:21:16;99509.91;;;4.17;100.00
55916;BME280;41826;53.246;-6.670;2022-11-20T08:23:42;99512.50;;;4.17;100.00
55916;BME280;41826;53.246;-6.670;2022-11-20T08:26:07;99510.34;;;4.22;100.00
55916;BME280;41826;53.246;-6.670;2022-11-20T08:28:32;99516.22;;;4.24;100.00
55916;BME280;41826;53.246;-6.670;2022-11-20T08:30:59;99516.13;;;4.26;100.00
55916;BME280;41826;53.246;-6.670;2022-11-20T08:33:25;99517.75;;;4.27;100.00
55916;BME280;41826;53.246;-6.670;2022-11-20T08:35:50;99516.94;;;4.26;100.00
55916;BME280;41826;53.246;-6.670;2022-11-20T08:38:16;99520.91;;;4.30;100.00
55916;BME280;41826;53.246;-6.670;2022-11-20T08:40:41;99515.72;;;4.30;100.00
55916;BME280;41826;53.246;-6.670;2022-11-20T08:43:26;99511.88;;;4.34;100.00
55916;BME280;41826;53.246;-6.670;2022-11-20T08:45:52;99503.16;;;4.36;100.00
55916;BME280;41826;53.246;-6.670;2022-11-20T08:48:17;99508.78;;;4.41;100.00
55916;BME280;41826;53.246;-6.670;2022-11-20T08:50:42;99505.91;;;4.44;100.00
55916;BME280;41826;53.246;-6.670;2022-11-20T08:53:08;99510.00;;;4.46;100.00
55916;BME280;41826;53.246;-6.670;2022-11-20T08:55:33;99507.25;;;4.48;100.00
55916;BME280;41826;53.246;-6.670;2022-11-20T08:58:04;99503.56;;;4.50;100.00
55916;BME280;41826;53.246;-6.670;2022-11-20T09:00:29;99516.56;;;4.50;100.00
55916;BME280;41826;53.246;-6.670;2022-11-20T09:02:55;99513.16;;;4.50;100.00
55916;BME280;41826;53.246;-6.670;2022-11-20T09:05:20;99512.63;;;4.56;100.00
55916;BME280;41826;53.246;-6.670;2022-11-20T09:07:46;99504.41;;;4.51;100.00
55916;BME280;41826;53.246;-6.670;2022-11-20T09:10:11;99496.06;;;4.57;100.00
55916;BME280;41826;53.246;-6.670;2022-11-20T09:12:36;99495.25;;;4.56;100.00
55916;BME280;41826;53.246;-6.670;2022-11-20T09:15:02;99494.16;;;4.59;100.00
55916;BME280;41826;53.246;-6.670;2022-11-20T09:17:27;99492.09;;;4.63;100.00
55916;BME280;41826;53.246;-6.670;2022-11-20T09:19:53;99496.38;;;4.64;100.00
55916;BME280;41826;53.246;-6.670;2022-11-20T09:22:18;99487.19;;;4.69;100.00
55916;BME280;41826;53.246;-6.670;2022-11-20T09:24:43;99485.28;;;4.71;100.00
55916;BME280;41826;53.246;-6.670;2022-11-20T09:27:09;99480.63;;;4.75;100.00
55916;BME280;41826;53.246;-6.670;2022-11-20T09:29:34;99491.59;;;4.78;100.00
55916;BME280;41826;53.246;-6.670;2022-11-20T09:32:00;99503.63;;;4.80;100.00
55916;BME280;41826;53.246;-6.670;2022-11-20T09:34:25;99500.63;;;4.84;100.00
55916;BME280;41826;53.246;-6.670;2022-11-20T09:36:51;99483.66;;;4.90;100.00
55916;BME280;41826;53.246;-6.670;2022-11-20T09:39:16;99493.78;;;4.93;100.00
55916;BME280;41826;53.246;-6.670;2022-11-20T09:49:59;99464.06;;;5.25;100.00
55916;BME280;41826;53.246;-6.670;2022-11-20T09:52:50;99462.25;;;5.35;100.00
55916;BME280;41826;53.246;-6.670;2022-11-20T09:55:19;99460.16;;;5.48;100.00
55916;BME280;41826;53.246;-6.670;2022-11-20T09:57:47;99461.78;;;5.49;100.00
55916;BME280;41826;53.246;-6.670;2022-11-20T10:00:14;99462.47;;;5.51;100.00
55916;BME280;41826;53.246;-6.670;2022-11-20T10:05:28;99458.06;;;5.52;100.00
55916;BME280;41826;53.246;-6.670;2022-11-20T10:08:10;99451.13;;;5.52;100.00
55916;BME280;41826;53.246;-6.670;2022-11-20T10:10:43;99438.91;;;5.53;100.00
55916;BME280;41826;53.246;-6.670;2022-11-20T10:13:40;99440.00;;;5.60;100.00
55916;BME280;41826;53.246;-6.670;2022-11-20T10:16:29;99432.03;;;5.61;100.00
55916;BME280;41826;53.246;-6.670;2022-11-20T10:19:11;99424.63;;;5.57;100.00
55916;BME280;41826;53.246;-6.670;2022-11-20T10:29:47;99449.31;;;5.53;100.00
55916;BME280;41826;53.246;-6.670;2022-11-20T10:32:19;99445.63;;;5.55;100.00
55916;BME280;41826;53.246;-6.670;2022-11-20T10:35:06;99454.66;;;5.51;100.00
55916;BME280;41826;53.246;-6.670;2022-11-20T10:37:43;99453.03;;;5.50;100.00
55916;BME280;41826;53.246;-6.670;2022-11-20T10:40:30;99458.91;;;5.52;100.00
55916;BME280;41826;53.246;-6.670;2022-11-20T10:43:03;99458.91;;;5.52;100.00
55916;BME280;41826;53.246;-6.670;2022-11-20T10:45:49;99460.56;;;5.53;100.00
55916;BME280;41826;53.246;-6.670;2022-11-20T10:48:24;99463.56;;;5.58;100.00
55916;BME280;41826;53.246;-6.670;2022-11-20T10:51:29;99473.28;;;5.56;100.00
55916;BME280;41826;53.246;-6.670;2022-11-20T10:57:26;99479.19;;;5.49;100.00
55916;BME280;41826;53.246;-6.670;2022-11-20T11:00:00;99488.66;;;5.50;100.00
55916;BME280;41826;53.246;-6.670;2022-11-20T11:05:08;99488.50;;;5.51;100.00
55916;BME280;41826;53.246;-6.670;2022-11-20T11:07:39;99486.25;;;5.76;100.00
55916;BME280;41826;53.246;-6.670;2022-11-20T11:10:15;99485.84;;;5.71;100.00
55916;BME280;41826;53.246;-6.670;2022-11-20T11:12:45;99483.78;;;5.74;100.00
55916;BME280;41826;53.246;-6.670;2022-11-20T11:15:15;99478.63;;;5.92;100.00
55916;BME280;41826;53.246;-6.670;2022-11-20T11:17:49;99473.56;;;6.00;100.00
55916;BME280;41826;53.246;-6.670;2022-11-20T11:22:56;99476.44;;;5.97;100.00
55916;BME280;41826;53.246;-6.670;2022-11-20T11:25:42;99473.50;;;5.82;100.00
55916;BME280;41826;53.246;-6.670;2022-11-20T11:28:22;99471.06;;;6.08;100.00
55916;BME280;41826;53.246;-6.670;2022-11-20T11:30:51;99480.56;;;6.00;100.00
55916;BME280;41826;53.246;-6.670;2022-11-20T11:33:25;99473.00;;;6.06;100.00
55916;BME280;41826;53.246;-6.670;2022-11-20T11:35:53;99477.50;;;6.04;100.00
55916;BME280;41826;53.246;-6.670;2022-11-20T11:40:54;99478.28;;;6.15;100.00
55916;BME280;41826;53.246;-6.670;2022-11-20T11:43:23;99477.50;;;6.32;100.00
55916;BME280;41826;53.246;-6.670;2022-11-20T11:46:24;99466.63;;;6.19;100.00
55916;BME280;41826;53.246;-6.670;2022-11-20T11:51:22;99466.28;;;6.32;100.00
55916;BME280;41826;53.246;-6.670;2022-11-20T11:53:49;99454.66;;;6.26;100.00
55916;BME280;41826;53.246;-6.670;2022-11-20T11:56:15;99469.13;;;6.38;100.00
55916;BME280;41826;53.246;-6.670;2022-11-20T11:58:47;99468.53;;;6.44;100.00
55916;BME280;41826;53.246;-6.670;2022-11-20T12:01:37;99456.84;;;6.48;100.00
55916;BME280;41826;53.246;-6.670;2022-11-20T12:07:01;99460.47;;;6.56;100.00
55916;BME280;41826;53.246;-6.670;2022-11-20T12:09:37;99465.41;;;6.59;100.00
55916;BME280;41826;53.246;-6.670;2022-11-20T12:12:10;99469.66;;;6.60;100.00
55916;BME280;41826;53.246;-6.670;2022-11-20T12:14:41;99468.53;;;6.62;100.00
55916;BME280;41826;53.246;-6.670;2022-11-20T12:17:12;99471.53;;;6.67;100.00
55916;BME280;41826;53.246;-6.670;2022-11-20T12:19:37;99473.19;;;6.68;100.00
55916;BME280;41826;53.246;-6.670;2022-11-20T12:30:19;99479.78;;;6.81;100.00
55916;BME280;41826;53.246;-6.670;2022-11-20T12:35:41;99463.88;;;6.84;100.00
55916;BME280;41826;53.246;-6.670;2022-11-20T12:44:17;99465.34;;;6.86;100.00
55916;BME280;41826;53.246;-6.670;2022-11-20T12:47:25;99481.66;;;6.88;100.00
55916;BME280;41826;53.246;-6.670;2022-11-20T12:53:00;99466.09;;;6.97;100.00
55916;BME280;41826;53.246;-6.670;2022-11-20T12:58:43;99461.75;;;7.05;100.00
55916;BME280;41826;53.246;-6.670;2022-11-20T13:01:36;99469.06;;;7.02;100.00
55916;BME280;41826;53.246;-6.670;2022-11-20T13:07:06;99471.00;;;7.00;100.00
55916;BME280;41826;53.246;-6.670;2022-11-20T13:09:36;99479.19;;;7.05;100.00
55916;BME280;41826;53.246;-6.670;2022-11-20T13:18:03;99481.44;;;7.00;100.00
55916;BME280;41826;53.246;-6.670;2022-11-20T13:20:32;99472.19;;;7.05;100.00
55916;BME280;41826;53.246;-6.670;2022-11-20T13:22:58;99484.41;;;7.05;100.00
55916;BME280;41826;53.246;-6.670;2022-11-20T13:25:25;99489.94;;;7.02;100.00
55916;BME280;41826;53.246;-6.670;2022-11-20T13:27:52;99484.03;;;7.00;100.00
55916;BME280;41826;53.246;-6.670;2022-11-20T13:30:18;99492.53;;;7.02;100.00
55916;BME280;41826;53.246;-6.670;2022-11-20T13:32:52;99490.59;;;7.04;100.00
55916;BME280;41826;53.246;-6.670;2022-11-20T13:35:31;99493.19;;;7.04;100.00
55916;BME280;41826;53.246;-6.670;2022-11-20T13:40:26;99502.69;;;7.05;100.00
55916;BME280;41826;53.246;-6.670;2022-11-20T13:45:30;99499.47;;;7.11;100.00
55916;BME280;41826;53.246;-6.670;2022-11-20T13:47:57;99511.19;;;7.07;100.00
55916;BME280;41826;53.246;-6.670;2022-11-20T13:53:33;99519.28;;;7.04;100.00
55916;BME280;41826;53.246;-6.670;2022-11-20T14:01:34;99505.78;;;7.08;100.00
55916;BME280;41826;53.246;-6.670;2022-11-20T14:04:08;99513.78;;;7.07;100.00
55916;BME280;41826;53.246;-6.670;2022-11-20T14:06:41;99518.03;;;7.08;100.00
55916;BME280;41826;53.246;-6.670;2022-11-20T14:09:29;99525.72;;;7.09;100.00
55916;BME280;41826;53.246;-6.670;2022-11-20T14:11:55;99533.53;;;7.09;100.00
55916;BME280;41826;53.246;-6.670;2022-11-20T14:14:26;99526.09;;;7.14;100.00
55916;BME280;41826;53.246;-6.670;2022-11-20T14:17:04;99535.69;;;7.14;100.00
55916;BME280;41826;53.246;-6.670;2022-11-20T14:19:30;99539.81;;;7.16;100.00
55916;BME280;41826;53.246;-6.670;2022-11-20T14:24:41;99537.34;;;7.15;100.00
55916;BME280;41826;53.246;-6.670;2022-11-20T14:27:18;99541.50;;;7.08;100.00